Staffordville, Connecticut
Current Conditions -  °F | °C
As of 7:52 AM on Thursday 27 Nov 2014 (Local Time) from KIJD Reporting Station
Overcast Overcast  
Wind Chill: 33°   Ceiling: 4100
Heat Index: 33°   Visibility: 10mi
Dew Point: 29°   Wind: 3mph
Humidity: 85%   Direction: 250°WSW
Pressure: 29.94"   Gusts: NA
Location:  41.99°N, 72.26°W
Report Text: KIJD 271252Z AUTO 25003KT 10SM BKN041 OVC060 01/M02 A2994 RMK AO2 SLP139 T00061017
Loading
Personal Weather Stations






























Interactive Weather Map New forecast layout! Learn more

10-Day Weather Forecast

Advertisements
Track Severe Weather on mobile